sensor_id;sensor_type;location;lat;lon;timestamp;P1;durP1;ratioP1;P2;durP2;ratioP2
20369;SDS011;10344;47.592;9.600;2023-11-21T00:01:24;4.03;;;1.10;;
20369;SDS011;10344;47.592;9.600;2023-11-21T00:03:50;1.85;;;1.02;;
20369;SDS011;10344;47.592;9.600;2023-11-21T00:06:19;1.93;;;1.20;;
20369;SDS011;10344;47.592;9.600;2023-11-21T00:08:45;3.05;;;1.30;;
20369;SDS011;10344;47.592;9.600;2023-11-21T00:11:11;3.08;;;0.95;;
20369;SDS011;10344;47.592;9.600;2023-11-21T00:13:36;3.47;;;1.15;;
20369;SDS011;10344;47.592;9.600;2023-11-21T00:16:03;3.70;;;1.10;;
20369;SDS011;10344;47.592;9.600;2023-11-21T00:18:29;3.45;;;1.08;;
20369;SDS011;10344;47.592;9.600;2023-11-21T00:20:55;1.52;;;1.08;;
20369;SDS011;10344;47.592;9.600;2023-11-21T00:23:20;2.20;;;0.90;;
20369;SDS011;10344;47.592;9.600;2023-11-21T00:25:46;1.70;;;1.00;;
20369;SDS011;10344;47.592;9.600;2023-11-21T00:28:11;2.10;;;1.07;;
20369;SDS011;10344;47.592;9.600;2023-11-21T00:30:37;2.60;;;0.97;;
20369;SDS011;10344;47.592;9.600;2023-11-21T00:33:03;2.27;;;1.00;;
20369;SDS011;10344;47.592;9.600;2023-11-21T00:35:29;2.60;;;1.10;;
20369;SDS011;10344;47.592;9.600;2023-11-21T00:37:54;2.50;;;1.10;;
20369;SDS011;10344;47.592;9.600;2023-11-21T00:40:21;1.92;;;1.10;;
20369;SDS011;10344;47.592;9.600;2023-11-21T00:42:47;2.38;;;1.02;;
20369;SDS011;10344;47.592;9.600;2023-11-21T00:45:13;1.40;;;1.05;;
20369;SDS011;10344;47.592;9.600;2023-11-21T00:47:40;4.60;;;1.33;;
20369;SDS011;10344;47.592;9.600;2023-11-21T00:50:07;1.10;;;0.90;;
20369;SDS011;10344;47.592;9.600;2023-11-21T00:52:34;2.28;;;1.08;;
20369;SDS011;10344;47.592;9.600;2023-11-21T00:55:01;2.30;;;1.00;;
20369;SDS011;10344;47.592;9.600;2023-11-21T00:57:28;1.95;;;1.20;;
20369;SDS011;10344;47.592;9.600;2023-11-21T00:59:56;3.47;;;1.40;;
20369;SDS011;10344;47.592;9.600;2023-11-21T01:02:21;1.73;;;1.03;;
20369;SDS011;10344;47.592;9.600;2023-11-21T01:04:52;2.60;;;1.00;;
20369;SDS011;10344;47.592;9.600;2023-11-21T01:07:17;3.00;;;1.10;;
20369;SDS011;10344;47.592;9.600;2023-11-21T01:09:45;1.42;;;1.13;;
20369;SDS011;10344;47.592;9.600;2023-11-21T01:12:11;3.28;;;1.30;;
20369;SDS011;10344;47.592;9.600;2023-11-21T01:14:37;2.20;;;0.90;;
20369;SDS011;10344;47.592;9.600;2023-11-21T01:17:02;3.30;;;1.40;;
20369;SDS011;10344;47.592;9.600;2023-11-21T01:19:29;1.92;;;0.80;;
20369;SDS011;10344;47.592;9.600;2023-11-21T01:21:55;1.92;;;1.20;;
20369;SDS011;10344;47.592;9.600;2023-11-21T01:24:23;2.58;;;1.27;;
20369;SDS011;10344;47.592;9.600;2023-11-21T01:26:48;3.20;;;1.30;;
20369;SDS011;10344;47.592;9.600;2023-11-21T01:29:17;2.80;;;1.10;;
20369;SDS011;10344;47.592;9.600;2023-11-21T01:31:42;1.93;;;1.20;;
20369;SDS011;10344;47.592;9.600;2023-11-21T01:34:08;2.80;;;1.20;;
20369;SDS011;10344;47.592;9.600;2023-11-21T01:36:33;3.37;;;1.20;;
20369;SDS011;10344;47.592;9.600;2023-11-21T01:39:00;3.65;;;1.30;;
20369;SDS011;10344;47.592;9.600;2023-11-21T01:41:29;1.80;;;0.98;;
20369;SDS011;10344;47.592;9.600;2023-11-21T01:43:55;2.88;;;1.25;;
20369;SDS011;10344;47.592;9.600;2023-11-21T01:46:21;2.00;;;1.40;;
20369;SDS011;10344;47.592;9.600;2023-11-21T01:48:48;2.73;;;1.40;;
20369;SDS011;10344;47.592;9.600;2023-11-21T01:51:14;2.08;;;1.35;;
20369;SDS011;10344;47.592;9.600;2023-11-21T01:53:40;3.10;;;1.50;;
20369;SDS011;10344;47.592;9.600;2023-11-21T01:56:06;2.70;;;1.60;;
20369;SDS011;10344;47.592;9.600;2023-11-21T01:58:33;2.28;;;1.20;;
20369;SDS011;10344;47.592;9.600;2023-11-21T02:00:59;3.27;;;1.30;;
20369;SDS011;10344;47.592;9.600;2023-11-21T02:03:25;2.20;;;1.58;;
20369;SDS011;10344;47.592;9.600;2023-11-21T02:05:51;2.28;;;1.30;;
20369;SDS011;10344;47.592;9.600;2023-11-21T02:08:18;4.40;;;1.75;;
20369;SDS011;10344;47.592;9.600;2023-11-21T02:10:46;3.92;;;1.40;;
20369;SDS011;10344;47.592;9.600;2023-11-21T02:13:12;4.37;;;1.33;;
20369;SDS011;10344;47.592;9.600;2023-11-21T02:15:41;1.98;;;1.02;;
20369;SDS011;10344;47.592;9.600;2023-11-21T02:18:07;2.72;;;1.45;;
20369;SDS011;10344;47.592;9.600;2023-11-21T02:20:36;3.15;;;1.20;;
20369;SDS011;10344;47.592;9.600;2023-11-21T02:23:04;2.42;;;1.40;;
20369;SDS011;10344;47.592;9.600;2023-11-21T02:25:30;4.93;;;1.35;;
20369;SDS011;10344;47.592;9.600;2023-11-21T02:27:58;2.80;;;1.35;;
20369;SDS011;10344;47.592;9.600;2023-11-21T02:30:25;3.25;;;1.25;;
20369;SDS011;10344;47.592;9.600;2023-11-21T02:32:55;3.43;;;1.20;;
20369;SDS011;10344;47.592;9.600;2023-11-21T02:35:24;3.47;;;1.30;;
20369;SDS011;10344;47.592;9.600;2023-11-21T02:37:51;3.53;;;1.45;;
20369;SDS011;10344;47.592;9.600;2023-11-21T02:40:17;2.30;;;1.20;;
20369;SDS011;10344;47.592;9.600;2023-11-21T02:42:52;3.08;;;1.10;;
20369;SDS011;10344;47.592;9.600;2023-11-21T02:45:18;1.92;;;1.02;;
20369;SDS011;10344;47.592;9.600;2023-11-21T02:47:47;2.47;;;1.20;;
20369;SDS011;10344;47.592;9.600;2023-11-21T02:50:18;1.90;;;1.00;;
20369;SDS011;10344;47.592;9.600;2023-11-21T02:52:47;4.47;;;1.27;;
20369;SDS011;10344;47.592;9.600;2023-11-21T02:55:13;2.97;;;1.17;;
20369;SDS011;10344;47.592;9.600;2023-11-21T02:57:39;2.67;;;1.23;;
20369;SDS011;10344;47.592;9.600;2023-11-21T03:00:04;3.35;;;1.05;;
20369;SDS011;10344;47.592;9.600;2023-11-21T03:02:33;1.25;;;1.15;;
20369;SDS011;10344;47.592;9.600;2023-11-21T03:05:04;2.25;;;1.25;;
20369;SDS011;10344;47.592;9.600;2023-11-21T03:07:31;3.40;;;1.50;;
20369;SDS011;10344;47.592;9.600;2023-11-21T03:09:56;2.28;;;1.25;;
20369;SDS011;10344;47.592;9.600;2023-11-21T03:12:22;3.28;;;1.20;;
20369;SDS011;10344;47.592;9.600;2023-11-21T03:14:48;1.57;;;0.90;;
20369;SDS011;10344;47.592;9.600;2023-11-21T03:17:13;1.83;;;1.13;;
20369;SDS011;10344;47.592;9.600;2023-11-21T03:19:41;2.65;;;1.00;;
20369;SDS011;10344;47.592;9.600;2023-11-21T03:22:06;2.75;;;1.17;;
20369;SDS011;10344;47.592;9.600;2023-11-21T03:24:33;2.78;;;1.23;;
20369;SDS011;10344;47.592;9.600;2023-11-21T03:27:01;2.47;;;1.13;;
20369;SDS011;10344;47.592;9.600;2023-11-21T03:29:29;3.58;;;1.20;;
20369;SDS011;10344;47.592;9.600;2023-11-21T03:31:57;3.23;;;1.90;;
20369;SDS011;10344;47.592;9.600;2023-11-21T03:34:23;2.58;;;1.40;;
20369;SDS011;10344;47.592;9.600;2023-11-21T03:36:53;3.38;;;1.42;;
20369;SDS011;10344;47.592;9.600;2023-11-21T03:39:22;6.40;;;1.65;;
20369;SDS011;10344;47.592;9.600;2023-11-21T03:41:47;3.08;;;1.40;;
20369;SDS011;10344;47.592;9.600;2023-11-21T03:44:14;2.70;;;1.60;;
20369;SDS011;10344;47.592;9.600;2023-11-21T03:46:43;5.38;;;1.38;;
20369;SDS011;10344;47.592;9.600;2023-11-21T03:49:09;5.40;;;1.50;;
20369;SDS011;10344;47.592;9.600;2023-11-21T03:51:36;3.33;;;1.40;;
20369;SDS011;10344;47.592;9.600;2023-11-21T03:54:04;4.53;;;1.70;;
20369;SDS011;10344;47.592;9.600;2023-11-21T03:56:30;3.30;;;1.47;;
20369;SDS011;10344;47.592;9.600;2023-11-21T03:58:55;1.67;;;1.30;;
20369;SDS011;10344;47.592;9.600;2023-11-21T04:01:21;2.55;;;0.93;;
20369;SDS011;10344;47.592;9.600;2023-11-21T04:03:47;3.83;;;1.00;;
20369;SDS011;10344;47.592;9.600;2023-11-21T04:06:16;2.45;;;1.33;;
20369;SDS011;10344;47.592;9.600;2023-11-21T04:08:43;2.15;;;1.00;;
20369;SDS011;10344;47.592;9.600;2023-11-21T04:11:10;3.13;;;1.02;;
20369;SDS011;10344;47.592;9.600;2023-11-21T04:13:39;1.08;;;0.98;;
20369;SDS011;10344;47.592;9.600;2023-11-21T04:16:08;2.22;;;1.20;;
20369;SDS011;10344;47.592;9.600;2023-11-21T04:18:35;3.20;;;1.20;;
20369;SDS011;10344;47.592;9.600;2023-11-21T04:21:02;3.35;;;1.48;;
20369;SDS011;10344;47.592;9.600;2023-11-21T04:23:28;0.80;;;0.73;;
20369;SDS011;10344;47.592;9.600;2023-11-21T04:25:55;1.25;;;0.73;;
20369;SDS011;10344;47.592;9.600;2023-11-21T04:28:22;1.63;;;1.15;;
20369;SDS011;10344;47.592;9.600;2023-11-21T04:30:48;1.80;;;0.90;;
20369;SDS011;10344;47.592;9.600;2023-11-21T04:33:13;1.23;;;1.00;;
20369;SDS011;10344;47.592;9.600;2023-11-21T04:35:39;2.70;;;1.15;;
20369;SDS011;10344;47.592;9.600;2023-11-21T04:38:04;1.70;;;1.10;;
20369;SDS011;10344;47.592;9.600;2023-11-21T04:40:32;3.22;;;1.25;;
20369;SDS011;10344;47.592;9.600;2023-11-21T04:43:00;2.75;;;1.05;;
20369;SDS011;10344;47.592;9.600;2023-11-21T04:45:29;1.00;;;0.90;;
20369;SDS011;10344;47.592;9.600;2023-11-21T04:47:54;3.13;;;1.10;;
20369;SDS011;10344;47.592;9.600;2023-11-21T04:50:21;1.77;;;1.30;;
20369;SDS011;10344;47.592;9.600;2023-11-21T04:52:46;2.00;;;1.10;;
20369;SDS011;10344;47.592;9.600;2023-11-21T04:55:14;1.85;;;1.00;;
20369;SDS011;10344;47.592;9.600;2023-11-21T04:57:40;1.10;;;1.00;;
20369;SDS011;10344;47.592;9.600;2023-11-21T05:00:06;1.50;;;0.90;;
20369;SDS011;10344;47.592;9.600;2023-11-21T05:02:33;1.48;;;0.88;;
20369;SDS011;10344;47.592;9.600;2023-11-21T05:05:00;2.97;;;1.20;;
20369;SDS011;10344;47.592;9.600;2023-11-21T05:07:30;1.27;;;1.05;;
20369;SDS011;10344;47.592;9.600;2023-11-21T05:10:00;3.22;;;1.20;;
20369;SDS011;10344;47.592;9.600;2023-11-21T05:12:30;3.05;;;1.10;;
20369;SDS011;10344;47.592;9.600;2023-11-21T05:15:05;2.45;;;1.20;;
20369;SDS011;10344;47.592;9.600;2023-11-21T05:17:38;3.15;;;1.40;;
20369;SDS011;10344;47.592;9.600;2023-11-21T05:20:07;3.97;;;1.58;;
20369;SDS011;10344;47.592;9.600;2023-11-21T05:22:34;5.13;;;2.08;;
20369;SDS011;10344;47.592;9.600;2023-11-21T05:25:03;4.20;;;1.70;;
20369;SDS011;10344;47.592;9.600;2023-11-21T05:27:29;3.15;;;1.67;;
20369;SDS011;10344;47.592;9.600;2023-11-21T05:29:58;2.13;;;1.30;;
20369;SDS011;10344;47.592;9.600;2023-11-21T05:32:24;1.88;;;1.40;;
20369;SDS011;10344;47.592;9.600;2023-11-21T05:34:50;1.25;;;1.10;;
20369;SDS011;10344;47.592;9.600;2023-11-21T05:37:16;3.05;;;1.20;;
20369;SDS011;10344;47.592;9.600;2023-11-21T05:39:42;1.90;;;1.10;;
20369;SDS011;10344;47.592;9.600;2023-11-21T05:42:08;1.48;;;1.15;;
20369;SDS011;10344;47.592;9.600;2023-11-21T05:44:36;2.83;;;1.40;;
20369;SDS011;10344;47.592;9.600;2023-11-21T05:47:06;1.77;;;1.20;;
20369;SDS011;10344;47.592;9.600;2023-11-21T05:49:32;2.80;;;1.30;;
20369;SDS011;10344;47.592;9.600;2023-11-21T05:51:58;1.85;;;1.00;;
20369;SDS011;10344;47.592;9.600;2023-11-21T05:54:24;2.80;;;1.10;;
20369;SDS011;10344;47.592;9.600;2023-11-21T05:56:51;2.05;;;1.17;;
20369;SDS011;10344;47.592;9.600;2023-11-21T05:59:16;2.22;;;1.23;;
20369;SDS011;10344;47.592;9.600;2023-11-21T06:01:42;2.50;;;1.50;;
20369;SDS011;10344;47.592;9.600;2023-11-21T06:04:08;3.00;;;1.30;;
20369;SDS011;10344;47.592;9.600;2023-11-21T06:06:34;1.95;;;1.40;;
20369;SDS011;10344;47.592;9.600;2023-11-21T06:09:00;2.88;;;1.70;;
20369;SDS011;10344;47.592;9.600;2023-11-21T06:11:26;2.20;;;1.50;;
20369;SDS011;10344;47.592;9.600;2023-11-21T06:13:51;4.15;;;1.73;;
20369;SDS011;10344;47.592;9.600;2023-11-21T06:16:18;3.75;;;1.90;;
20369;SDS011;10344;47.592;9.600;2023-11-21T06:18:46;3.58;;;1.88;;
20369;SDS011;10344;47.592;9.600;2023-11-21T06:21:12;3.40;;;1.60;;
20369;SDS011;10344;47.592;9.600;2023-11-21T06:23:41;2.92;;;1.77;;
20369;SDS011;10344;47.592;9.600;2023-11-21T06:26:07;3.60;;;1.80;;
20369;SDS011;10344;47.592;9.600;2023-11-21T06:28:34;2.43;;;1.50;;
20369;SDS011;10344;47.592;9.600;2023-11-21T06:31:01;3.65;;;1.50;;
20369;SDS011;10344;47.592;9.600;2023-11-21T06:33:30;3.30;;;1.30;;
20369;SDS011;10344;47.592;9.600;2023-11-21T06:35:56;3.22;;;1.50;;
20369;SDS011;10344;47.592;9.600;2023-11-21T06:38:22;4.40;;;1.60;;
20369;SDS011;10344;47.592;9.600;2023-11-21T06:40:48;1.42;;;1.20;;
20369;SDS011;10344;47.592;9.600;2023-11-21T06:43:13;1.87;;;1.10;;
20369;SDS011;10344;47.592;9.600;2023-11-21T06:45:40;2.20;;;1.30;;
20369;SDS011;10344;47.592;9.600;2023-11-21T06:48:06;3.97;;;1.75;;
20369;SDS011;10344;47.592;9.600;2023-11-21T06:50:31;1.77;;;1.25;;
20369;SDS011;10344;47.592;9.600;2023-11-21T06:52:59;3.78;;;1.60;;
20369;SDS011;10344;47.592;9.600;2023-11-21T06:55:27;3.50;;;1.53;;
20369;SDS011;10344;47.592;9.600;2023-11-21T06:57:53;1.97;;;1.47;;
20369;SDS011;10344;47.592;9.600;2023-11-21T07:00:18;1.88;;;1.40;;
20369;SDS011;10344;47.592;9.600;2023-11-21T07:02:44;2.22;;;1.30;;
20369;SDS011;10344;47.592;9.600;2023-11-21T07:05:10;2.55;;;1.30;;
20369;SDS011;10344;47.592;9.600;2023-11-21T07:07:36;2.03;;;1.20;;
20369;SDS011;10344;47.592;9.600;2023-11-21T07:10:02;2.03;;;1.27;;
20369;SDS011;10344;47.592;9.600;2023-11-21T07:12:29;1.75;;;1.25;;
20369;SDS011;10344;47.592;9.600;2023-11-21T07:14:56;1.90;;;1.00;;
20369;SDS011;10344;47.592;9.600;2023-11-21T07:17:22;1.77;;;0.95;;
20369;SDS011;10344;47.592;9.600;2023-11-21T07:19:48;1.65;;;1.20;;
20369;SDS011;10344;47.592;9.600;2023-11-21T07:22:14;3.42;;;1.40;;
20369;SDS011;10344;47.592;9.600;2023-11-21T07:24:46;5.97;;;3.70;;
20369;SDS011;10344;47.592;9.600;2023-11-21T07:27:14;5.05;;;3.42;;
20369;SDS011;10344;47.592;9.600;2023-11-21T07:29:40;2.60;;;1.90;;
20369;SDS011;10344;47.592;9.600;2023-11-21T07:32:05;2.70;;;1.50;;
20369;SDS011;10344;47.592;9.600;2023-11-21T07:34:31;3.35;;;1.48;;
20369;SDS011;10344;47.592;9.600;2023-11-21T07:36:57;1.17;;;1.08;;
20369;SDS011;10344;47.592;9.600;2023-11-21T07:39:24;0.88;;;0.85;;
20369;SDS011;10344;47.592;9.600;2023-11-21T07:41:51;1.10;;;0.80;;
20369;SDS011;10344;47.592;9.600;2023-11-21T07:44:16;0.77;;;0.77;;
20369;SDS011;10344;47.592;9.600;2023-11-21T07:46:42;0.82;;;0.70;;
20369;SDS011;10344;47.592;9.600;2023-11-21T07:49:09;0.77;;;0.77;;
20369;SDS011;10344;47.592;9.600;2023-11-21T07:51:35;1.98;;;0.68;;
20369;SDS011;10344;47.592;9.600;2023-11-21T07:54:03;0.70;;;0.57;;
20369;SDS011;10344;47.592;9.600;2023-11-21T07:56:30;1.38;;;0.65;;
20369;SDS011;10344;47.592;9.600;2023-11-21T07:58:56;0.67;;;0.67;;
20369;SDS011;10344;47.592;9.600;2023-11-21T08:01:24;0.88;;;0.50;;
20369;SDS011;10344;47.592;9.600;2023-11-21T08:03:50;0.47;;;0.47;;
20369;SDS011;10344;47.592;9.600;2023-11-21T08:06:17;1.80;;;0.70;;
20369;SDS011;10344;47.592;9.600;2023-11-21T08:08:43;0.60;;;0.60;;
20369;SDS011;10344;47.592;9.600;2023-11-21T08:11:08;1.00;;;0.53;;
20369;SDS011;10344;47.592;9.600;2023-11-21T08:13:35;0.97;;;0.63;;
20369;SDS011;10344;47.592;9.600;2023-11-21T08:16:00;0.60;;;0.60;;
20369;SDS011;10344;47.592;9.600;2023-11-21T08:18:30;1.70;;;0.50;;
20369;SDS011;10344;47.592;9.600;2023-11-21T08:20:55;0.93;;;0.80;;
20369;SDS011;10344;47.592;9.600;2023-11-21T08:23:23;0.50;;;0.50;;
20369;SDS011;10344;47.592;9.600;2023-11-21T08:25:50;0.43;;;0.40;;
20369;SDS011;10344;47.592;9.600;2023-11-21T08:28:16;0.60;;;0.60;;
20369;SDS011;10344;47.592;9.600;2023-11-21T08:30:42;1.60;;;0.85;;
20369;SDS011;10344;47.592;9.600;2023-11-21T08:33:09;1.30;;;1.20;;
20369;SDS011;10344;47.592;9.600;2023-11-21T08:35:34;1.90;;;1.08;;
20369;SDS011;10344;47.592;9.600;2023-11-21T08:38:01;2.10;;;1.20;;
20369;SDS011;10344;47.592;9.600;2023-11-21T08:40:27;2.22;;;1.30;;
20369;SDS011;10344;47.592;9.600;2023-11-21T08:42:53;1.30;;;1.13;;
20369;SDS011;10344;47.592;9.600;2023-11-21T08:45:20;2.00;;;1.30;;
20369;SDS011;10344;47.592;9.600;2023-11-21T08:47:47;1.75;;;1.20;;
20369;SDS011;10344;47.592;9.600;2023-11-21T08:50:15;1.95;;;1.60;;
20369;SDS011;10344;47.592;9.600;2023-11-21T08:52:41;1.70;;;1.20;;
20369;SDS011;10344;47.592;9.600;2023-11-21T08:55:07;3.42;;;1.48;;
20369;SDS011;10344;47.592;9.600;2023-11-21T08:57:36;2.35;;;1.20;;
20369;SDS011;10344;47.592;9.600;2023-11-21T09:00:07;2.10;;;1.23;;
20369;SDS011;10344;47.592;9.600;2023-11-21T09:02:39;2.25;;;1.10;;
20369;SDS011;10344;47.592;9.600;2023-11-21T09:05:08;2.25;;;1.20;;
20369;SDS011;10344;47.592;9.600;2023-11-21T09:07:38;1.35;;;1.20;;
20369;SDS011;10344;47.592;9.600;2023-11-21T09:10:05;1.60;;;1.10;;
20369;SDS011;10344;47.592;9.600;2023-11-21T09:12:34;2.00;;;1.30;;
20369;SDS011;10344;47.592;9.600;2023-11-21T09:15:02;1.38;;;1.25;;
20369;SDS011;10344;47.592;9.600;2023-11-21T09:17:29;0.65;;;0.65;;
20369;SDS011;10344;47.592;9.600;2023-11-21T09:19:55;0.83;;;0.80;;
20369;SDS011;10344;47.592;9.600;2023-11-21T09:22:22;0.65;;;0.55;;
20369;SDS011;10344;47.592;9.600;2023-11-21T09:24:50;0.52;;;0.52;;
20369;SDS011;10344;47.592;9.600;2023-11-21T09:27:18;0.80;;;0.65;;
20369;SDS011;10344;47.592;9.600;2023-11-21T09:29:44;0.40;;;0.40;;
20369;SDS011;10344;47.592;9.600;2023-11-21T09:32:10;0.52;;;0.52;;
20369;SDS011;10344;47.592;9.600;2023-11-21T09:34:39;1.20;;;0.80;;
20369;SDS011;10344;47.592;9.600;2023-11-21T09:37:05;0.70;;;0.70;;
20369;SDS011;10344;47.592;9.600;2023-11-21T09:39:32;1.00;;;0.50;;
20369;SDS011;10344;47.592;9.600;2023-11-21T09:42:06;0.70;;;0.70;;
20369;SDS011;10344;47.592;9.600;2023-11-21T09:44:45;0.60;;;0.60;;
20369;SDS011;10344;47.592;9.600;2023-11-21T09:47:14;0.85;;;0.60;;
20369;SDS011;10344;47.592;9.600;2023-11-21T09:49:42;0.80;;;0.60;;
20369;SDS011;10344;47.592;9.600;2023-11-21T09:52:12;0.60;;;0.60;;
20369;SDS011;10344;47.592;9.600;2023-11-21T09:54:50;0.57;;;0.50;;
20369;SDS011;10344;47.592;9.600;2023-11-21T09:57:22;0.80;;;0.77;;
20369;SDS011;10344;47.592;9.600;2023-11-21T09:59:55;1.08;;;0.80;;
20369;SDS011;10344;47.592;9.600;2023-11-21T10:02:25;0.67;;;0.67;;
20369;SDS011;10344;47.592;9.600;2023-11-21T10:04:54;0.77;;;0.70;;
20369;SDS011;10344;47.592;9.600;2023-11-21T10:07:21;0.93;;;0.68;;
20369;SDS011;10344;47.592;9.600;2023-11-21T10:09:48;0.68;;;0.50;;
20369;SDS011;10344;47.592;9.600;2023-11-21T10:12:16;0.70;;;0.70;;
20369;SDS011;10344;47.592;9.600;2023-11-21T10:14:42;0.63;;;0.63;;
20369;SDS011;10344;47.592;9.600;2023-11-21T10:17:12;0.77;;;0.60;;
20369;SDS011;10344;47.592;9.600;2023-11-21T10:19:41;1.23;;;0.83;;
20369;SDS011;10344;47.592;9.600;2023-11-21T10:22:11;1.70;;;1.30;;
20369;SDS011;10344;47.592;9.600;2023-11-21T10:24:37;1.60;;;1.10;;
20369;SDS011;10344;47.592;9.600;2023-11-21T10:27:04;1.40;;;1.30;;
20369;SDS011;10344;47.592;9.600;2023-11-21T10:29:29;1.52;;;1.42;;
20369;SDS011;10344;47.592;9.600;2023-11-21T10:31:55;1.52;;;1.42;;
20369;SDS011;10344;47.592;9.600;2023-11-21T10:34:23;2.83;;;1.75;;
20369;SDS011;10344;47.592;9.600;2023-11-21T10:36:49;2.97;;;1.90;;
20369;SDS011;10344;47.592;9.600;2023-11-21T10:39:19;2.30;;;1.60;;
20369;SDS011;10344;47.592;9.600;2023-11-21T10:41:49;2.38;;;1.38;;
20369;SDS011;10344;47.592;9.600;2023-11-21T10:44:19;1.60;;;1.50;;
20369;SDS011;10344;47.592;9.600;2023-11-21T10:46:49;1.80;;;1.70;;
20369;SDS011;10344;47.592;9.600;2023-11-21T10:49:21;1.45;;;1.27;;
20369;SDS011;10344;47.592;9.600;2023-11-21T10:51:49;1.33;;;1.23;;
20369;SDS011;10344;47.592;9.600;2023-11-21T10:54:20;2.60;;;1.95;;
20369;SDS011;10344;47.592;9.600;2023-11-21T10:56:52;1.95;;;1.67;;
20369;SDS011;10344;47.592;9.600;2023-11-21T10:59:24;4.10;;;1.98;;
20369;SDS011;10344;47.592;9.600;2023-11-21T11:01:57;2.50;;;1.70;;
20369;SDS011;10344;47.592;9.600;2023-11-21T11:04:26;1.42;;;1.33;;
20369;SDS011;10344;47.592;9.600;2023-11-21T11:06:59;2.75;;;1.60;;
20369;SDS011;10344;47.592;9.600;2023-11-21T11:09:28;2.38;;;1.58;;
20369;SDS011;10344;47.592;9.600;2023-11-21T11:11:58;2.50;;;1.70;;
20369;SDS011;10344;47.592;9.600;2023-11-21T11:14:24;1.90;;;1.67;;
20369;SDS011;10344;47.592;9.600;2023-11-21T11:16:53;3.70;;;2.85;;
20369;SDS011;10344;47.592;9.600;2023-11-21T11:19:22;1.58;;;1.40;;
20369;SDS011;10344;47.592;9.600;2023-11-21T11:27:15;1.45;;;1.30;;
20369;SDS011;10344;47.592;9.600;2023-11-21T11:29:56;1.20;;;1.00;;
20369;SDS011;10344;47.592;9.600;2023-11-21T11:35:34;1.20;;;1.10;;
20369;SDS011;10344;47.592;9.600;2023-11-21T11:38:20;1.27;;;1.10;;
20369;SDS011;10344;47.592;9.600;2023-11-21T11:40:48;2.40;;;1.92;;
20369;SDS011;10344;47.592;9.600;2023-11-21T11:43:27;1.30;;;0.98;;
20369;SDS011;10344;47.592;9.600;2023-11-21T11:45:56;1.58;;;1.30;;
20369;SDS011;10344;47.592;9.600;2023-11-21T11:48:24;5.13;;;1.73;;
20369;SDS011;10344;47.592;9.600;2023-11-21T11:51:06;3.15;;;1.52;;
20369;SDS011;10344;47.592;9.600;2023-11-21T11:53:35;2.60;;;1.55;;
20369;SDS011;10344;47.592;9.600;2023-11-21T11:58:56;2.20;;;1.50;;
20369;SDS011;10344;47.592;9.600;2023-11-21T12:01:24;1.35;;;1.25;;
20369;SDS011;10344;47.592;9.600;2023-11-21T12:06:45;2.47;;;1.20;;
20369;SDS011;10344;47.592;9.600;2023-11-21T12:09:23;1.50;;;0.85;;
20369;SDS011;10344;47.592;9.600;2023-11-21T12:11:53;1.00;;;0.90;;
20369;SDS011;10344;47.592;9.600;2023-11-21T12:14:22;1.15;;;1.05;;
20369;SDS011;10344;47.592;9.600;2023-11-21T12:16:48;1.10;;;1.00;;
20369;SDS011;10344;47.592;9.600;2023-11-21T12:19:14;1.88;;;1.00;;
20369;SDS011;10344;47.592;9.600;2023-11-21T12:21:40;1.80;;;1.27;;
20369;SDS011;10344;47.592;9.600;2023-11-21T12:24:07;1.38;;;1.17;;
20369;SDS011;10344;47.592;9.600;2023-11-21T12:26:34;2.42;;;1.40;;
20369;SDS011;10344;47.592;9.600;2023-11-21T12:29:01;1.40;;;1.30;;
20369;SDS011;10344;47.592;9.600;2023-11-21T12:31:29;1.67;;;1.30;;
20369;SDS011;10344;47.592;9.600;2023-11-21T12:33:55;2.17;;;1.65;;
20369;SDS011;10344;47.592;9.600;2023-11-21T12:36:22;1.77;;;1.40;;
20369;SDS011;10344;47.592;9.600;2023-11-21T12:38:48;1.50;;;1.20;;
20369;SDS011;10344;47.592;9.600;2023-11-21T12:41:15;1.33;;;1.23;;
20369;SDS011;10344;47.592;9.600;2023-11-21T12:43:42;1.73;;;1.50;;
20369;SDS011;10344;47.592;9.600;2023-11-21T12:46:08;1.50;;;1.00;;
20369;SDS011;10344;47.592;9.600;2023-11-21T12:48:39;1.73;;;1.20;;
20369;SDS011;10344;47.592;9.600;2023-11-21T12:51:09;1.52;;;1.20;;
20369;SDS011;10344;47.592;9.600;2023-11-21T12:53:36;1.80;;;1.08;;
20369;SDS011;10344;47.592;9.600;2023-11-21T12:56:06;1.50;;;1.30;;
20369;SDS011;10344;47.592;9.600;2023-11-21T12:58:39;1.33;;;1.20;;
20369;SDS011;10344;47.592;9.600;2023-11-21T13:01:12;1.45;;;1.15;;
20369;SDS011;10344;47.592;9.600;2023-11-21T13:03:43;2.03;;;1.20;;
20369;SDS011;10344;47.592;9.600;2023-11-21T13:06:10;1.08;;;0.98;;
20369;SDS011;10344;47.592;9.600;2023-11-21T13:08:37;1.35;;;0.90;;
20369;SDS011;10344;47.592;9.600;2023-11-21T13:11:04;1.00;;;0.90;;
20369;SDS011;10344;47.592;9.600;2023-11-21T13:13:31;1.10;;;1.10;;
20369;SDS011;10344;47.592;9.600;2023-11-21T13:15:59;1.90;;;1.20;;
20369;SDS011;10344;47.592;9.600;2023-11-21T13:18:27;1.00;;;0.90;;
20369;SDS011;10344;47.592;9.600;2023-11-21T13:20:56;1.30;;;1.00;;
20369;SDS011;10344;47.592;9.600;2023-11-21T13:23:36;1.60;;;1.13;;
20369;SDS011;10344;47.592;9.600;2023-11-21T13:26:02;1.58;;;1.20;;
20369;SDS011;10344;47.592;9.600;2023-11-21T13:28:32;1.10;;;1.00;;
20369;SDS011;10344;47.592;9.600;2023-11-21T13:30:59;1.33;;;0.85;;
20369;SDS011;10344;47.592;9.600;2023-11-21T13:33:34;0.70;;;0.63;;
20369;SDS011;10344;47.592;9.600;2023-11-21T13:36:02;1.23;;;0.90;;
20369;SDS011;10344;47.592;9.600;2023-11-21T13:38:32;1.13;;;0.65;;
20369;SDS011;10344;47.592;9.600;2023-11-21T13:41:00;0.65;;;0.60;;
20369;SDS011;10344;47.592;9.600;2023-11-21T13:43:26;0.70;;;0.70;;
20369;SDS011;10344;47.592;9.600;2023-11-21T13:45:53;1.27;;;0.85;;
20369;SDS011;10344;47.592;9.600;2023-11-21T13:48:29;1.07;;;0.83;;
20369;SDS011;10344;47.592;9.600;2023-11-21T13:51:05;2.70;;;1.23;;
20369;SDS011;10344;47.592;9.600;2023-11-21T13:53:45;1.77;;;0.90;;
20369;SDS011;10344;47.592;9.600;2023-11-21T13:56:17;1.33;;;1.00;;
20369;SDS011;10344;47.592;9.600;2023-11-21T13:58:50;0.98;;;0.98;;
20369;SDS011;10344;47.592;9.600;2023-11-21T14:01:17;1.05;;;0.80;;
20369;SDS011;10344;47.592;9.600;2023-11-21T14:03:49;0.45;;;0.45;;
20369;SDS011;10344;47.592;9.600;2023-11-21T14:06:21;0.80;;;0.70;;
20369;SDS011;10344;47.592;9.600;2023-11-21T14:08:53;0.60;;;0.60;;
20369;SDS011;10344;47.592;9.600;2023-11-21T14:11:21;0.57;;;0.43;;
20369;SDS011;10344;47.592;9.600;2023-11-21T14:13:47;0.57;;;0.57;;
20369;SDS011;10344;47.592;9.600;2023-11-21T14:16:13;0.70;;;0.70;;
20369;SDS011;10344;47.592;9.600;2023-11-21T14:18:42;1.40;;;0.63;;
20369;SDS011;10344;47.592;9.600;2023-11-21T14:21:26;0.90;;;0.90;;
20369;SDS011;10344;47.592;9.600;2023-11-21T14:23:52;0.70;;;0.70;;
20369;SDS011;10344;47.592;9.600;2023-11-21T14:26:20;0.50;;;0.50;;
20369;SDS011;10344;47.592;9.600;2023-11-21T14:28:46;0.80;;;0.75;;
20369;SDS011;10344;47.592;9.600;2023-11-21T14:31:14;0.70;;;0.70;;
20369;SDS011;10344;47.592;9.600;2023-11-21T14:33:42;0.88;;;0.60;;
20369;SDS011;10344;47.592;9.600;2023-11-21T14:36:10;0.70;;;0.70;;
20369;SDS011;10344;47.592;9.600;2023-11-21T14:38:38;0.85;;;0.85;;
20369;SDS011;10344;47.592;9.600;2023-11-21T14:41:04;0.60;;;0.60;;
20369;SDS011;10344;47.592;9.600;2023-11-21T14:43:33;1.05;;;0.70;;
20369;SDS011;10344;47.592;9.600;2023-11-21T14:46:04;1.55;;;1.05;;
20369;SDS011;10344;47.592;9.600;2023-11-21T14:48:37;1.15;;;1.05;;
20369;SDS011;10344;47.592;9.600;2023-11-21T14:51:12;1.45;;;1.10;;
20369;SDS011;10344;47.592;9.600;2023-11-21T14:53:50;1.23;;;0.75;;
20369;SDS011;10344;47.592;9.600;2023-11-21T14:56:20;1.35;;;0.90;;
20369;SDS011;10344;47.592;9.600;2023-11-21T14:58:56;2.60;;;1.50;;
20369;SDS011;10344;47.592;9.600;2023-11-21T15:01:23;2.88;;;2.03;;
20369;SDS011;10344;47.592;9.600;2023-11-21T15:04:07;1.67;;;1.45;;
20369;SDS011;10344;47.592;9.600;2023-11-21T15:06:39;1.90;;;1.30;;